sensor_id;sensor_type;location;lat;lon;timestamp;temperature;humidity
42979;DHT22;28616;44.746;19.678;2023-03-23T00:01:29;8.90;99.90
42979;DHT22;28616;44.746;19.678;2023-03-23T00:03:58;8.90;99.90
42979;DHT22;28616;44.746;19.678;2023-03-23T00:06:26;8.90;99.90
42979;DHT22;28616;44.746;19.678;2023-03-23T00:08:54;8.80;99.90
42979;DHT22;28616;44.746;19.678;2023-03-23T00:11:27;8.80;99.90
42979;DHT22;28616;44.746;19.678;2023-03-23T00:13:55;8.70;99.90
42979;DHT22;28616;44.746;19.678;2023-03-23T00:16:25;8.70;99.90
42979;DHT22;28616;44.746;19.678;2023-03-23T00:19:03;8.70;99.90
42979;DHT22;28616;44.746;19.678;2023-03-23T00:21:39;8.60;99.90
42979;DHT22;28616;44.746;19.678;2023-03-23T00:24:07;8.60;99.90
42979;DHT22;28616;44.746;19.678;2023-03-23T00:26:36;8.60;99.90
42979;DHT22;28616;44.746;19.678;2023-03-23T00:29:07;8.50;99.90
42979;DHT22;28616;44.746;19.678;2023-03-23T00:31:33;8.60;99.90
42979;DHT22;28616;44.746;19.678;2023-03-23T00:34:02;8.50;99.90
42979;DHT22;28616;44.746;19.678;2023-03-23T00:36:30;8.50;99.90
42979;DHT22;28616;44.746;19.678;2023-03-23T00:38:57;8.50;99.90
42979;DHT22;28616;44.746;19.678;2023-03-23T00:41:25;8.50;99.90
42979;DHT22;28616;44.746;19.678;2023-03-23T00:43:53;8.50;99.90
42979;DHT22;28616;44.746;19.678;2023-03-23T00:46:19;8.40;99.90
42979;DHT22;28616;44.746;19.678;2023-03-23T00:48:46;8.40;99.90
42979;DHT22;28616;44.746;19.678;2023-03-23T00:51:12;8.30;99.90
42979;DHT22;28616;44.746;19.678;2023-03-23T00:53:41;8.30;99.90
42979;DHT22;28616;44.746;19.678;2023-03-23T00:56:07;8.20;99.90
42979;DHT22;28616;44.746;19.678;2023-03-23T00:58:34;8.20;99.90
42979;DHT22;28616;44.746;19.678;2023-03-23T01:01:00;8.20;99.90
42979;DHT22;28616;44.746;19.678;2023-03-23T01:03:26;8.10;99.90
42979;DHT22;28616;44.746;19.678;2023-03-23T01:05:54;8.10;99.90
42979;DHT22;28616;44.746;19.678;2023-03-23T01:08:21;8.10;99.90
42979;DHT22;28616;44.746;19.678;2023-03-23T01:10:48;8.00;99.90
42979;DHT22;28616;44.746;19.678;2023-03-23T01:13:15;8.00;99.90
42979;DHT22;28616;44.746;19.678;2023-03-23T01:15:41;8.00;99.90
42979;DHT22;28616;44.746;19.678;2023-03-23T01:18:08;8.00;99.90
42979;DHT22;28616;44.746;19.678;2023-03-23T01:20:35;7.90;99.90
42979;DHT22;28616;44.746;19.678;2023-03-23T01:23:02;7.90;99.90
42979;DHT22;28616;44.746;19.678;2023-03-23T01:25:29;7.90;99.90
42979;DHT22;28616;44.746;19.678;2023-03-23T01:27:56;7.90;99.90
42979;DHT22;28616;44.746;19.678;2023-03-23T01:30:23;7.80;99.90
42979;DHT22;28616;44.746;19.678;2023-03-23T01:32:49;7.90;99.90
42979;DHT22;28616;44.746;19.678;2023-03-23T01:35:16;7.80;99.90
42979;DHT22;28616;44.746;19.678;2023-03-23T01:37:42;7.80;99.90
42979;DHT22;28616;44.746;19.678;2023-03-23T01:40:08;7.70;99.90
42979;DHT22;28616;44.746;19.678;2023-03-23T01:42:36;7.70;99.90
42979;DHT22;28616;44.746;19.678;2023-03-23T01:45:38;7.60;99.90
42979;DHT22;28616;44.746;19.678;2023-03-23T01:48:16;7.60;99.90
42979;DHT22;28616;44.746;19.678;2023-03-23T01:50:53;7.60;99.90
42979;DHT22;28616;44.746;19.678;2023-03-23T01:53:22;7.50;99.90
42979;DHT22;28616;44.746;19.678;2023-03-23T01:55:50;7.40;99.90
42979;DHT22;28616;44.746;19.678;2023-03-23T01:58:22;7.40;99.90
42979;DHT22;28616;44.746;19.678;2023-03-23T02:00:52;7.40;99.90
42979;DHT22;28616;44.746;19.678;2023-03-23T02:03:19;7.50;99.90
42979;DHT22;28616;44.746;19.678;2023-03-23T02:05:45;7.50;99.90
42979;DHT22;28616;44.746;19.678;2023-03-23T02:08:11;7.50;99.90
42979;DHT22;28616;44.746;19.678;2023-03-23T02:10:39;7.50;99.90
42979;DHT22;28616;44.746;19.678;2023-03-23T02:13:07;7.50;99.90
42979;DHT22;28616;44.746;19.678;2023-03-23T02:18:30;7.30;99.90
42979;DHT22;28616;44.746;19.678;2023-03-23T02:21:05;7.40;99.90
42979;DHT22;28616;44.746;19.678;2023-03-23T02:23:52;7.30;99.90
42979;DHT22;28616;44.746;19.678;2023-03-23T02:26:38;7.30;99.90
42979;DHT22;28616;44.746;19.678;2023-03-23T02:31:45;7.20;99.90
42979;DHT22;28616;44.746;19.678;2023-03-23T02:34:19;7.20;99.90
42979;DHT22;28616;44.746;19.678;2023-03-23T02:36:53;7.20;99.90
42979;DHT22;28616;44.746;19.678;2023-03-23T02:39:28;7.20;99.90
42979;DHT22;28616;44.746;19.678;2023-03-23T02:42:05;7.20;99.90
42979;DHT22;28616;44.746;19.678;2023-03-23T02:44:32;7.10;99.90
42979;DHT22;28616;44.746;19.678;2023-03-23T02:47:00;7.10;99.90
42979;DHT22;28616;44.746;19.678;2023-03-23T02:49:31;7.10;99.90
42979;DHT22;28616;44.746;19.678;2023-03-23T02:52:08;7.10;99.90
42979;DHT22;28616;44.746;19.678;2023-03-23T02:54:38;7.10;99.90
42979;DHT22;28616;44.746;19.678;2023-03-23T02:57:04;7.20;99.90
42979;DHT22;28616;44.746;19.678;2023-03-23T02:59:30;7.10;99.90
42979;DHT22;28616;44.746;19.678;2023-03-23T03:02:05;7.10;99.90
42979;DHT22;28616;44.746;19.678;2023-03-23T03:04:32;7.10;99.90
42979;DHT22;28616;44.746;19.678;2023-03-23T03:07:06;7.10;99.90
42979;DHT22;28616;44.746;19.678;2023-03-23T03:09:46;7.10;99.90
42979;DHT22;28616;44.746;19.678;2023-03-23T03:12:20;7.10;99.90
42979;DHT22;28616;44.746;19.678;2023-03-23T03:15:16;7.10;99.90
42979;DHT22;28616;44.746;19.678;2023-03-23T03:18:00;7.10;99.90
42979;DHT22;28616;44.746;19.678;2023-03-23T03:20:29;7.10;99.90
42979;DHT22;28616;44.746;19.678;2023-03-23T03:22:57;7.10;99.90
42979;DHT22;28616;44.746;19.678;2023-03-23T03:25:25;7.00;99.90
42979;DHT22;28616;44.746;19.678;2023-03-23T03:27:53;7.00;99.90
42979;DHT22;28616;44.746;19.678;2023-03-23T03:30:23;7.00;99.90
42979;DHT22;28616;44.746;19.678;2023-03-23T03:32:52;6.90;99.90
42979;DHT22;28616;44.746;19.678;2023-03-23T03:35:23;6.90;99.90
42979;DHT22;28616;44.746;19.678;2023-03-23T03:37:49;6.80;99.90
42979;DHT22;28616;44.746;19.678;2023-03-23T03:40:18;6.90;99.90
42979;DHT22;28616;44.746;19.678;2023-03-23T03:42:45;6.80;99.90
42979;DHT22;28616;44.746;19.678;2023-03-23T03:45:16;6.80;99.90
42979;DHT22;28616;44.746;19.678;2023-03-23T03:47:43;6.80;99.90
42979;DHT22;28616;44.746;19.678;2023-03-23T03:50:09;6.70;99.90
42979;DHT22;28616;44.746;19.678;2023-03-23T03:52:35;6.70;99.90
42979;DHT22;28616;44.746;19.678;2023-03-23T03:55:01;6.70;99.90
42979;DHT22;28616;44.746;19.678;2023-03-23T03:57:27;6.70;99.90
42979;DHT22;28616;44.746;19.678;2023-03-23T03:59:53;6.60;99.90
42979;DHT22;28616;44.746;19.678;2023-03-23T04:02:19;6.70;99.90
42979;DHT22;28616;44.746;19.678;2023-03-23T04:04:49;6.70;99.90
42979;DHT22;28616;44.746;19.678;2023-03-23T04:07:15;6.70;99.90
42979;DHT22;28616;44.746;19.678;2023-03-23T04:09:43;6.70;99.90
42979;DHT22;28616;44.746;19.678;2023-03-23T04:12:09;6.70;99.90
42979;DHT22;28616;44.746;19.678;2023-03-23T04:14:35;6.60;99.90
42979;DHT22;28616;44.746;19.678;2023-03-23T04:17:00;6.70;99.90
42979;DHT22;28616;44.746;19.678;2023-03-23T04:19:26;6.70;99.90
42979;DHT22;28616;44.746;19.678;2023-03-23T04:21:54;6.70;99.90
42979;DHT22;28616;44.746;19.678;2023-03-23T04:24:21;6.70;99.90
42979;DHT22;28616;44.746;19.678;2023-03-23T04:26:49;6.60;99.90
42979;DHT22;28616;44.746;19.678;2023-03-23T04:29:17;6.70;99.90
42979;DHT22;28616;44.746;19.678;2023-03-23T04:31:43;6.60;99.90
42979;DHT22;28616;44.746;19.678;2023-03-23T04:34:11;6.60;99.90
42979;DHT22;28616;44.746;19.678;2023-03-23T04:36:40;6.60;99.90
42979;DHT22;28616;44.746;19.678;2023-03-23T04:39:06;6.60;99.90
42979;DHT22;28616;44.746;19.678;2023-03-23T04:41:36;6.60;99.90
42979;DHT22;28616;44.746;19.678;2023-03-23T04:44:01;6.60;99.90
42979;DHT22;28616;44.746;19.678;2023-03-23T04:46:28;6.50;99.90
42979;DHT22;28616;44.746;19.678;2023-03-23T04:48:57;6.50;99.90
42979;DHT22;28616;44.746;19.678;2023-03-23T04:51:28;6.50;99.90
42979;DHT22;28616;44.746;19.678;2023-03-23T04:53:54;6.50;99.90
42979;DHT22;28616;44.746;19.678;2023-03-23T04:56:20;6.50;99.90
42979;DHT22;28616;44.746;19.678;2023-03-23T04:58:46;6.50;99.90
42979;DHT22;28616;44.746;19.678;2023-03-23T05:01:13;6.60;99.90
42979;DHT22;28616;44.746;19.678;2023-03-23T05:03:43;6.60;99.90
42979;DHT22;28616;44.746;19.678;2023-03-23T05:06:09;6.60;99.90
42979;DHT22;28616;44.746;19.678;2023-03-23T05:08:35;6.60;99.90
42979;DHT22;28616;44.746;19.678;2023-03-23T05:11:05;6.60;99.90
42979;DHT22;28616;44.746;19.678;2023-03-23T05:13:31;6.60;99.90
42979;DHT22;28616;44.746;19.678;2023-03-23T05:15:57;6.60;99.90
42979;DHT22;28616;44.746;19.678;2023-03-23T05:18:24;6.70;99.90
42979;DHT22;28616;44.746;19.678;2023-03-23T05:20:51;6.80;99.90
42979;DHT22;28616;44.746;19.678;2023-03-23T05:23:19;6.80;99.90
42979;DHT22;28616;44.746;19.678;2023-03-23T05:25:56;6.80;99.90
42979;DHT22;28616;44.746;19.678;2023-03-23T05:28:22;6.80;99.90
42979;DHT22;28616;44.746;19.678;2023-03-23T05:30:48;6.80;99.90
42979;DHT22;28616;44.746;19.678;2023-03-23T05:33:14;6.80;99.90
42979;DHT22;28616;44.746;19.678;2023-03-23T05:35:41;6.90;99.90
42979;DHT22;28616;44.746;19.678;2023-03-23T05:38:07;6.90;99.90
42979;DHT22;28616;44.746;19.678;2023-03-23T05:40:32;7.00;99.90
42979;DHT22;28616;44.746;19.678;2023-03-23T05:42:58;7.00;99.90
42979;DHT22;28616;44.746;19.678;2023-03-23T05:45:25;7.10;99.90
42979;DHT22;28616;44.746;19.678;2023-03-23T05:47:52;7.20;99.90
42979;DHT22;28616;44.746;19.678;2023-03-23T05:50:18;7.40;99.90
42979;DHT22;28616;44.746;19.678;2023-03-23T05:52:44;7.40;99.90
42979;DHT22;28616;44.746;19.678;2023-03-23T05:55:10;7.50;99.90
42979;DHT22;28616;44.746;19.678;2023-03-23T05:57:36;7.60;99.90
42979;DHT22;28616;44.746;19.678;2023-03-23T06:00:03;7.70;99.90
42979;DHT22;28616;44.746;19.678;2023-03-23T06:02:37;7.80;99.90
42979;DHT22;28616;44.746;19.678;2023-03-23T06:05:03;7.90;99.90
42979;DHT22;28616;44.746;19.678;2023-03-23T06:07:28;8.00;99.90
42979;DHT22;28616;44.746;19.678;2023-03-23T06:09:54;8.10;99.90
42979;DHT22;28616;44.746;19.678;2023-03-23T06:12:21;8.20;99.90
42979;DHT22;28616;44.746;19.678;2023-03-23T06:14:48;8.40;99.90
42979;DHT22;28616;44.746;19.678;2023-03-23T06:17:17;8.60;99.90
42979;DHT22;28616;44.746;19.678;2023-03-23T06:19:43;8.60;99.90
42979;DHT22;28616;44.746;19.678;2023-03-23T06:22:09;8.80;99.90
42979;DHT22;28616;44.746;19.678;2023-03-23T06:24:36;9.00;99.90
42979;DHT22;28616;44.746;19.678;2023-03-23T06:27:01;9.10;99.90
42979;DHT22;28616;44.746;19.678;2023-03-23T06:29:27;9.20;99.90
42979;DHT22;28616;44.746;19.678;2023-03-23T06:31:59;9.40;99.90
42979;DHT22;28616;44.746;19.678;2023-03-23T06:34:25;9.50;99.90
42979;DHT22;28616;44.746;19.678;2023-03-23T06:36:51;9.80;99.90
42979;DHT22;28616;44.746;19.678;2023-03-23T06:39:17;9.90;99.90
42979;DHT22;28616;44.746;19.678;2023-03-23T06:41:43;10.10;99.90
42979;DHT22;28616;44.746;19.678;2023-03-23T06:44:09;10.20;99.90
42979;DHT22;28616;44.746;19.678;2023-03-23T06:46:39;10.40;99.90
42979;DHT22;28616;44.746;19.678;2023-03-23T06:49:05;10.60;99.90
42979;DHT22;28616;44.746;19.678;2023-03-23T06:51:31;10.80;99.90
42979;DHT22;28616;44.746;19.678;2023-03-23T06:53:57;11.00;99.90
42979;DHT22;28616;44.746;19.678;2023-03-23T06:56:23;11.10;99.90
42979;DHT22;28616;44.746;19.678;2023-03-23T06:58:49;11.30;99.90
42979;DHT22;28616;44.746;19.678;2023-03-23T07:01:15;11.40;99.90
42979;DHT22;28616;44.746;19.678;2023-03-23T07:03:41;11.60;99.90
42979;DHT22;28616;44.746;19.678;2023-03-23T07:06:08;11.70;99.90
42979;DHT22;28616;44.746;19.678;2023-03-23T07:08:34;11.80;99.90
42979;DHT22;28616;44.746;19.678;2023-03-23T07:11:00;12.00;99.90
42979;DHT22;28616;44.746;19.678;2023-03-23T07:13:27;12.20;99.90
42979;DHT22;28616;44.746;19.678;2023-03-23T07:15:52;12.30;99.90
42979;DHT22;28616;44.746;19.678;2023-03-23T07:18:18;12.40;99.90
42979;DHT22;28616;44.746;19.678;2023-03-23T07:20:49;12.60;99.90
42979;DHT22;28616;44.746;19.678;2023-03-23T07:23:15;12.60;99.90
42979;DHT22;28616;44.746;19.678;2023-03-23T07:25:43;12.80;99.30
42979;DHT22;28616;44.746;19.678;2023-03-23T07:28:08;13.10;99.20
42979;DHT22;28616;44.746;19.678;2023-03-23T07:30:34;13.20;96.00
42979;DHT22;28616;44.746;19.678;2023-03-23T07:33:07;13.30;95.80
42979;DHT22;28616;44.746;19.678;2023-03-23T07:35:33;13.50;93.90
42979;DHT22;28616;44.746;19.678;2023-03-23T07:37:59;13.60;92.80
42979;DHT22;28616;44.746;19.678;2023-03-23T07:40:26;13.80;91.80
42979;DHT22;28616;44.746;19.678;2023-03-23T07:42:56;14.10;92.80
42979;DHT22;28616;44.746;19.678;2023-03-23T07:45:23;14.20;90.10
42979;DHT22;28616;44.746;19.678;2023-03-23T07:47:49;14.40;89.80
42979;DHT22;28616;44.746;19.678;2023-03-23T07:50:15;14.60;85.90
42979;DHT22;28616;44.746;19.678;2023-03-23T07:52:42;15.00;83.90
42979;DHT22;28616;44.746;19.678;2023-03-23T07:55:10;15.20;82.30
42979;DHT22;28616;44.746;19.678;2023-03-23T07:57:46;15.30;79.50
42979;DHT22;28616;44.746;19.678;2023-03-23T08:00:13;15.70;77.00
42979;DHT22;28616;44.746;19.678;2023-03-23T08:02:54;15.80;75.40
42979;DHT22;28616;44.746;19.678;2023-03-23T08:05:21;16.00;74.30
42979;DHT22;28616;44.746;19.678;2023-03-23T08:08:08;16.40;75.70
42979;DHT22;28616;44.746;19.678;2023-03-23T08:10:54;16.40;71.50
42979;DHT22;28616;44.746;19.678;2023-03-23T08:13:20;16.50;69.20
42979;DHT22;28616;44.746;19.678;2023-03-23T08:15:45;16.90;73.90
42979;DHT22;28616;44.746;19.678;2023-03-23T08:18:11;16.90;68.80
42979;DHT22;28616;44.746;19.678;2023-03-23T08:20:37;17.30;68.60
42979;DHT22;28616;44.746;19.678;2023-03-23T08:23:03;17.50;68.10
42979;DHT22;28616;44.746;19.678;2023-03-23T08:25:29;17.60;66.90
42979;DHT22;28616;44.746;19.678;2023-03-23T08:27:59;17.80;66.90
42979;DHT22;28616;44.746;19.678;2023-03-23T08:30:27;18.00;66.40
42979;DHT22;28616;44.746;19.678;2023-03-23T08:32:58;18.00;68.40
42979;DHT22;28616;44.746;19.678;2023-03-23T08:35:26;18.30;65.40
42979;DHT22;28616;44.746;19.678;2023-03-23T08:37:51;18.50;63.40
42979;DHT22;28616;44.746;19.678;2023-03-23T08:40:20;18.80;62.70
42979;DHT22;28616;44.746;19.678;2023-03-23T08:42:48;18.70;65.00
42979;DHT22;28616;44.746;19.678;2023-03-23T08:45:20;19.10;58.00
42979;DHT22;28616;44.746;19.678;2023-03-23T08:47:46;19.50;58.40
42979;DHT22;28616;44.746;19.678;2023-03-23T08:50:16;19.70;56.30
42979;DHT22;28616;44.746;19.678;2023-03-23T08:52:43;19.90;56.40
42979;DHT22;28616;44.746;19.678;2023-03-23T08:55:09;19.80;55.80
42979;DHT22;28616;44.746;19.678;2023-03-23T08:57:35;20.10;53.70
42979;DHT22;28616;44.746;19.678;2023-03-23T09:00:07;20.00;54.30
42979;DHT22;28616;44.746;19.678;2023-03-23T09:02:42;20.30;52.10
42979;DHT22;28616;44.746;19.678;2023-03-23T09:05:09;20.70;54.50
42979;DHT22;28616;44.746;19.678;2023-03-23T09:07:41;20.80;53.00
42979;DHT22;28616;44.746;19.678;2023-03-23T09:10:08;20.60;51.70
42979;DHT22;28616;44.746;19.678;2023-03-23T09:12:33;20.90;53.90
42979;DHT22;28616;44.746;19.678;2023-03-23T09:15:01;20.70;51.10
42979;DHT22;28616;44.746;19.678;2023-03-23T09:17:30;20.90;50.80
42979;DHT22;28616;44.746;19.678;2023-03-23T09:19:56;21.00;52.00
42979;DHT22;28616;44.746;19.678;2023-03-23T09:22:22;21.20;52.60
42979;DHT22;28616;44.746;19.678;2023-03-23T09:24:49;21.50;48.40
42979;DHT22;28616;44.746;19.678;2023-03-23T09:27:17;21.70;46.40
42979;DHT22;28616;44.746;19.678;2023-03-23T09:29:43;21.50;46.40
42979;DHT22;28616;44.746;19.678;2023-03-23T09:32:10;22.10;46.80
42979;DHT22;28616;44.746;19.678;2023-03-23T09:34:38;22.10;47.60
42979;DHT22;28616;44.746;19.678;2023-03-23T09:37:04;22.20;48.40
42979;DHT22;28616;44.746;19.678;2023-03-23T09:39:30;22.00;45.70
42979;DHT22;28616;44.746;19.678;2023-03-23T09:49:50;22.40;44.50
42979;DHT22;28616;44.746;19.678;2023-03-23T09:52:18;22.50;44.30
42979;DHT22;28616;44.746;19.678;2023-03-23T09:54:51;22.70;42.20
42979;DHT22;28616;44.746;19.678;2023-03-23T14:23:16;24.90;26.20
42979;DHT22;28616;44.746;19.678;2023-03-23T14:25:42;25.00;26.30
42979;DHT22;28616;44.746;19.678;2023-03-23T14:28:19;24.80;25.00
42979;DHT22;28616;44.746;19.678;2023-03-23T14:30:46;24.60;26.00
42979;DHT22;28616;44.746;19.678;2023-03-23T14:33:12;24.60;25.80
42979;DHT22;28616;44.746;19.678;2023-03-23T14:35:41;24.60;25.10
42979;DHT22;28616;44.746;19.678;2023-03-23T14:38:16;24.80;25.60
42979;DHT22;28616;44.746;19.678;2023-03-23T14:40:44;24.50;24.50
42979;DHT22;28616;44.746;19.678;2023-03-23T14:43:12;24.40;25.90
42979;DHT22;28616;44.746;19.678;2023-03-23T14:45:39;24.20;26.80
42979;DHT22;28616;44.746;19.678;2023-03-23T14:48:06;23.80;27.40
42979;DHT22;28616;44.746;19.678;2023-03-23T14:53:40;23.10;27.70
42979;DHT22;28616;44.746;19.678;2023-03-23T14:56:18;23.00;28.80
42979;DHT22;28616;44.746;19.678;2023-03-23T14:58:49;23.00;28.20
42979;DHT22;28616;44.746;19.678;2023-03-23T15:01:24;23.00;28.80
42979;DHT22;28616;44.746;19.678;2023-03-23T15:04:10;23.10;27.70
42979;DHT22;28616;44.746;19.678;2023-03-23T15:06:39;23.30;27.50
42979;DHT22;28616;44.746;19.678;2023-03-23T15:09:16;23.40;27.60
42979;DHT22;28616;44.746;19.678;2023-03-23T15:12:18;23.20;27.50
42979;DHT22;28616;44.746;19.678;2023-03-23T15:14:46;22.90;28.40
42979;DHT22;28616;44.746;19.678;2023-03-23T15:17:24;22.70;28.20
42979;DHT22;28616;44.746;19.678;2023-03-23T15:19:52;22.70;30.00
42979;DHT22;28616;44.746;19.678;2023-03-23T15:22:30;22.50;29.60
42979;DHT22;28616;44.746;19.678;2023-03-23T15:25:07;22.20;29.60
42979;DHT22;28616;44.746;19.678;2023-03-23T15:27:40;22.10;29.70
42979;DHT22;28616;44.746;19.678;2023-03-23T15:33:01;21.90;29.70
42979;DHT22;28616;44.746;19.678;2023-03-23T15:35:27;21.90;30.10
42979;DHT22;28616;44.746;19.678;2023-03-23T15:37:58;21.80;30.80
42979;DHT22;28616;44.746;19.678;2023-03-23T15:40:25;21.60;30.00
42979;DHT22;28616;44.746;19.678;2023-03-23T15:43:15;21.60;31.10
42979;DHT22;28616;44.746;19.678;2023-03-23T15:45:56;21.50;33.10
42979;DHT22;28616;44.746;19.678;2023-03-23T15:48:24;21.40;30.70
42979;DHT22;28616;44.746;19.678;2023-03-23T15:50:50;21.30;31.10
42979;DHT22;28616;44.746;19.678;2023-03-23T15:55:54;21.20;30.90
42979;DHT22;28616;44.746;19.678;2023-03-23T15:58:20;21.20;32.50
42979;DHT22;28616;44.746;19.678;2023-03-23T16:00:46;21.00;30.80
42979;DHT22;28616;44.746;19.678;2023-03-23T16:03:27;20.90;31.40
42979;DHT22;28616;44.746;19.678;2023-03-23T16:05:56;20.90;30.70
42979;DHT22;28616;44.746;19.678;2023-03-23T16:08:24;20.90;31.90
42979;DHT22;28616;44.746;19.678;2023-03-23T16:10:50;20.80;30.80
42979;DHT22;28616;44.746;19.678;2023-03-23T16:13:16;20.80;31.60
42979;DHT22;28616;44.746;19.678;2023-03-23T16:15:43;20.70;32.10
42979;DHT22;28616;44.746;19.678;2023-03-23T16:18:19;20.60;32.00
42979;DHT22;28616;44.746;19.678;2023-03-23T16:20:49;20.60;32.00
42979;DHT22;28616;44.746;19.678;2023-03-23T16:23:14;20.40;32.70
42979;DHT22;28616;44.746;19.678;2023-03-23T16:25:40;20.30;33.50
42979;DHT22;28616;44.746;19.678;2023-03-23T16:28:12;20.20;33.80
42979;DHT22;28616;44.746;19.678;2023-03-23T16:30:38;20.10;34.50
42979;DHT22;28616;44.746;19.678;2023-03-23T16:33:05;20.00;34.60
42979;DHT22;28616;44.746;19.678;2023-03-23T16:35:31;19.90;34.50
42979;DHT22;28616;44.746;19.678;2023-03-23T16:37:57;19.80;34.70
42979;DHT22;28616;44.746;19.678;2023-03-23T16:40:24;19.70;35.60
42979;DHT22;28616;44.746;19.678;2023-03-23T16:42:49;19.60;35.50
42979;DHT22;28616;44.746;19.678;2023-03-23T16:45:16;19.50;35.60
42979;DHT22;28616;44.746;19.678;2023-03-23T16:47:43;19.40;36.70
42979;DHT22;28616;44.746;19.678;2023-03-23T16:50:11;19.20;36.40
42979;DHT22;28616;44.746;19.678;2023-03-23T16:52:42;19.10;36.50
42979;DHT22;28616;44.746;19.678;2023-03-23T16:55:10;19.00;37.00
42979;DHT22;28616;44.746;19.678;2023-03-23T16:57:36;19.00;38.40
42979;DHT22;28616;44.746;19.678;2023-03-23T17:00:08;18.90;37.20
42979;DHT22;28616;44.746;19.678;2023-03-23T17:02:35;18.80;39.90
42979;DHT22;28616;44.746;19.678;2023-03-23T17:05:01;18.70;38.90
42979;DHT22;28616;44.746;19.678;2023-03-23T17:07:27;18.50;39.30
42979;DHT22;28616;44.746;19.678;2023-03-23T17:09:53;18.50;40.20
42979;DHT22;28616;44.746;19.678;2023-03-23T17:12:19;18.30;41.00
42979;DHT22;28616;44.746;19.678;2023-03-23T17:14:45;18.20;41.30
42979;DHT22;28616;44.746;19.678;2023-03-23T17:17:11;18.10;40.30
42979;DHT22;28616;44.746;19.678;2023-03-23T17:19:37;18.00;42.60
42979;DHT22;28616;44.746;19.678;2023-03-23T17:22:02;17.90;41.90
42979;DHT22;28616;44.746;19.678;2023-03-23T17:24:28;17.80;41.60
42979;DHT22;28616;44.746;19.678;2023-03-23T17:26:54;17.70;42.60
42979;DHT22;28616;44.746;19.678;2023-03-23T17:29:20;17.60;42.70
42979;DHT22;28616;44.746;19.678;2023-03-23T17:31:47;17.50;43.40
42979;DHT22;28616;44.746;19.678;2023-03-23T17:34:14;17.50;44.70
42979;DHT22;28616;44.746;19.678;2023-03-23T17:36:40;17.40;47.20
42979;DHT22;28616;44.746;19.678;2023-03-23T17:39:05;17.30;46.00
42979;DHT22;28616;44.746;19.678;2023-03-23T17:41:31;17.20;45.00
42979;DHT22;28616;44.746;19.678;2023-03-23T17:43:57;17.10;47.20
42979;DHT22;28616;44.746;19.678;2023-03-23T17:46:23;17.10;46.80
42979;DHT22;28616;44.746;19.678;2023-03-23T17:48:49;17.00;46.30
42979;DHT22;28616;44.746;19.678;2023-03-23T17:51:16;16.90;46.30
42979;DHT22;28616;44.746;19.678;2023-03-23T17:53:42;16.90;46.70
42979;DHT22;28616;44.746;19.678;2023-03-23T17:56:08;16.80;46.30
42979;DHT22;28616;44.746;19.678;2023-03-23T17:58:34;16.80;46.10
42979;DHT22;28616;44.746;19.678;2023-03-23T18:01:00;16.70;46.00
42979;DHT22;28616;44.746;19.678;2023-03-23T18:03:26;16.70;46.20
42979;DHT22;28616;44.746;19.678;2023-03-23T18:05:57;16.60;46.20
42979;DHT22;28616;44.746;19.678;2023-03-23T18:08:23;16.60;48.10
42979;DHT22;28616;44.746;19.678;2023-03-23T18:10:50;16.60;48.40
42979;DHT22;28616;44.746;19.678;2023-03-23T18:13:16;16.60;49.50
42979;DHT22;28616;44.746;19.678;2023-03-23T18:15:43;16.50;48.60
42979;DHT22;28616;44.746;19.678;2023-03-23T18:18:09;16.50;47.50
42979;DHT22;28616;44.746;19.678;2023-03-23T18:20:34;16.50;47.50
42979;DHT22;28616;44.746;19.678;2023-03-23T18:23:00;16.40;47.40
42979;DHT22;28616;44.746;19.678;2023-03-23T18:25:28;16.30;48.00
42979;DHT22;28616;44.746;19.678;2023-03-23T18:27:54;16.30;47.60
42979;DHT22;28616;44.746;19.678;2023-03-23T18:30:21;16.30;48.90
42979;DHT22;28616;44.746;19.678;2023-03-23T18:32:47;16.20;50.00
42979;DHT22;28616;44.746;19.678;2023-03-23T18:35:13;16.20;50.00
42979;DHT22;28616;44.746;19.678;2023-03-23T18:37:39;16.10;48.00
42979;DHT22;28616;44.746;19.678;2023-03-23T18:40:07;16.10;48.10
42979;DHT22;28616;44.746;19.678;2023-03-23T18:42:37;16.00;48.50
42979;DHT22;28616;44.746;19.678;2023-03-23T18:45:04;16.00;48.80
42979;DHT22;28616;44.746;19.678;2023-03-23T18:47:30;15.90;50.40
42979;DHT22;28616;44.746;19.678;2023-03-23T18:49:56;15.90;49.90
42979;DHT22;28616;44.746;19.678;2023-03-23T18:52:24;15.80;49.70
42979;DHT22;28616;44.746;19.678;2023-03-23T18:54:58;15.80;50.40
42979;DHT22;28616;44.746;19.678;2023-03-23T18:57:25;15.70;49.40
42979;DHT22;28616;44.746;19.678;2023-03-23T18:59:51;15.60;51.20
42979;DHT22;28616;44.746;19.678;2023-03-23T19:02:18;15.50;51.10
42979;DHT22;28616;44.746;19.678;2023-03-23T19:04:44;15.40;51.10
42979;DHT22;28616;44.746;19.678;2023-03-23T19:07:11;15.40;52.10
42979;DHT22;28616;44.746;19.678;2023-03-23T19:09:38;15.30;52.10
42979;DHT22;28616;44.746;19.678;2023-03-23T19:12:06;15.20;51.90
42979;DHT22;28616;44.746;19.678;2023-03-23T19:14:33;15.10;51.40
42979;DHT22;28616;44.746;19.678;2023-03-23T19:16:59;15.10;52.80
42979;DHT22;28616;44.746;19.678;2023-03-23T19:19:25;15.00;54.00
42979;DHT22;28616;44.746;19.678;2023-03-23T19:21:51;14.90;52.30
42979;DHT22;28616;44.746;19.678;2023-03-23T19:24:16;14.80;54.00
42979;DHT22;28616;44.746;19.678;2023-03-23T19:26:43;14.70;53.50
42979;DHT22;28616;44.746;19.678;2023-03-23T19:29:12;14.60;54.30
42979;DHT22;28616;44.746;19.678;2023-03-23T19:31:39;14.50;55.70
42979;DHT22;28616;44.746;19.678;2023-03-23T19:34:05;14.50;56.00
42979;DHT22;28616;44.746;19.678;2023-03-23T19:36:31;14.40;56.10
42979;DHT22;28616;44.746;19.678;2023-03-23T19:38:57;14.30;56.30
42979;DHT22;28616;44.746;19.678;2023-03-23T19:41:24;14.20;56.60
42979;DHT22;28616;44.746;19.678;2023-03-23T19:43:50;14.20;57.90
42979;DHT22;28616;44.746;19.678;2023-03-23T19:46:16;14.10;57.40
42979;DHT22;28616;44.746;19.678;2023-03-23T19:48:42;14.10;57.30
42979;DHT22;28616;44.746;19.678;2023-03-23T19:51:10;14.10;56.90
42979;DHT22;28616;44.746;19.678;2023-03-23T19:53:36;14.00;57.40
42979;DHT22;28616;44.746;19.678;2023-03-23T19:56:03;14.00;58.70
42979;DHT22;28616;44.746;19.678;2023-03-23T19:58:29;13.90;57.90
42979;DHT22;28616;44.746;19.678;2023-03-23T20:00:55;13.90;58.10
42979;DHT22;28616;44.746;19.678;2023-03-23T20:03:21;13.80;58.40
42979;DHT22;28616;44.746;19.678;2023-03-23T20:05:47;13.80;58.40
42979;DHT22;28616;44.746;19.678;2023-03-23T20:08:13;13.70;58.60
42979;DHT22;28616;44.746;19.678;2023-03-23T20:10:39;13.70;59.20
42979;DHT22;28616;44.746;19.678;2023-03-23T20:13:06;13.70;59.20
42979;DHT22;28616;44.746;19.678;2023-03-23T20:15:32;13.60;59.10
42979;DHT22;28616;44.746;19.678;2023-03-23T20:17:59;13.60;59.00